createdAt,value
2023-04-09T00:01:26.347Z,63.29
2023-04-09T00:04:52.853Z,63.34
2023-04-09T00:08:19.798Z,63.31
2023-04-09T00:11:46.407Z,63.39
2023-04-09T00:15:30.029Z,63.34
2023-04-09T00:19:03.025Z,63.77
2023-04-09T00:22:29.833Z,63.67
2023-04-09T00:25:56.747Z,63.62
2023-04-09T00:29:23.524Z,63.93
2023-04-09T00:32:50.303Z,63.96
2023-04-09T00:36:17.283Z,63.60
2023-04-09T00:39:43.856Z,64.28
2023-04-09T00:43:10.103Z,64.20
2023-04-09T00:46:36.747Z,63.89
2023-04-09T00:50:04.521Z,64.34
2023-04-09T00:53:32.301Z,64.36
2023-04-09T00:56:58.991Z,64.60
2023-04-09T01:00:25.906Z,64.46
2023-04-09T01:03:53.283Z,64.61
2023-04-09T01:07:27.562Z,64.66
2023-04-09T01:11:01.242Z,64.28
2023-04-09T01:14:36.591Z,64.57
2023-04-09T01:18:11.822Z,64.70
2023-04-09T01:21:40.563Z,64.50
2023-04-09T01:25:21.251Z,64.56
2023-04-09T01:28:50.553Z,64.98
2023-04-09T01:32:20.858Z,65.01
2023-04-09T01:35:49.926Z,65.12
2023-04-09T01:39:17.523Z,65.21
2023-04-09T01:42:44.746Z,65.09
2023-04-09T01:46:12.440Z,65.08
2023-04-09T01:49:39.969Z,65.13
2023-04-09T01:53:07.297Z,65.14
2023-04-09T01:56:44.479Z,65.02
2023-04-09T02:00:14.771Z,65.24
2023-04-09T02:03:48.724Z,65.19
2023-04-09T02:07:39.741Z,65.17
2023-04-09T02:11:11.390Z,65.22
2023-04-09T02:14:39.595Z,65.24
2023-04-09T02:18:06.579Z,65.26
2023-04-09T02:21:33.395Z,65.44
2023-04-09T02:25:00.208Z,65.47
2023-04-09T02:28:26.880Z,65.51
2023-04-09T02:31:53.778Z,65.88
2023-04-09T02:35:20.973Z,66.07
2023-04-09T02:38:47.454Z,66.01
2023-04-09T02:42:14.141Z,66.35
2023-04-09T02:45:40.871Z,66.38
2023-04-09T02:49:07.528Z,66.37
2023-04-09T02:52:34.311Z,66.51
2023-04-09T02:56:01.092Z,66.71
2023-04-09T02:59:29.161Z,66.89
2023-04-09T03:02:56.325Z,66.80
2023-04-09T03:06:23.167Z,66.91
2023-04-09T03:09:49.809Z,66.90
2023-04-09T03:13:16.967Z,66.90
2023-04-09T03:16:43.510Z,66.87
2023-04-09T03:20:11.664Z,67.01
2023-04-09T03:23:38.701Z,66.88
2023-04-09T03:27:06.120Z,67.12
2023-04-09T03:30:32.878Z,67.01
2023-04-09T03:34:01.663Z,67.09
2023-04-09T03:37:29.840Z,67.33
2023-04-09T03:40:57.469Z,67.27
2023-04-09T03:44:24.158Z,67.70
2023-04-09T03:48:09.446Z,67.62
2023-04-09T03:51:36.930Z,67.61
2023-04-09T03:55:06.548Z,67.84
2023-04-09T03:58:33.131Z,67.90
2023-04-09T04:02:00.504Z,67.93
2023-04-09T04:05:28.440Z,67.89
2023-04-09T04:08:56.886Z,68.16
2023-04-09T04:12:33.196Z,68.09
2023-04-09T04:16:10.854Z,68.19
2023-04-09T04:19:38.771Z,68.30
2023-04-09T04:23:06.861Z,68.35
2023-04-09T04:26:35.552Z,68.34
2023-04-09T04:30:03.430Z,68.41
2023-04-09T04:33:37.537Z,68.19
2023-04-09T04:37:07.375Z,68.43
2023-04-09T04:40:34.189Z,68.59
2023-04-09T04:44:02.412Z,68.53
2023-04-09T04:47:29.518Z,68.55
2023-04-09T04:51:03.172Z,68.45
2023-04-09T04:54:37.188Z,68.73
2023-04-09T04:58:03.607Z,68.61
2023-04-09T05:01:38.350Z,68.79
2023-04-09T05:05:09.386Z,69.08
2023-04-09T05:08:40.769Z,69.08
2023-04-09T05:12:08.184Z,68.94
2023-04-09T05:15:41.862Z,69.29
2023-04-09T05:19:09.549Z,69.32
2023-04-09T05:22:37.566Z,69.52
2023-04-09T05:26:04.406Z,69.19
2023-04-09T05:29:43.018Z,69.65
2023-04-09T05:33:09.956Z,69.48
2023-04-09T05:36:36.684Z,69.24
2023-04-09T05:40:03.963Z,69.48
2023-04-09T05:43:31.020Z,69.50
2023-04-09T05:46:58.216Z,69.58
2023-04-09T05:50:30.403Z,69.66
2023-04-09T05:53:59.619Z,69.56
2023-04-09T05:57:33.387Z,69.71
2023-04-09T06:01:03.888Z,69.99
2023-04-09T06:04:30.475Z,70.15
2023-04-09T06:07:57.240Z,69.76
2023-04-09T06:11:24.428Z,70.13
2023-04-09T06:14:52.302Z,70.19
2023-04-09T06:18:18.506Z,69.99
2023-04-09T06:21:45.668Z,70.00
2023-04-09T06:25:12.896Z,69.85
2023-04-09T06:28:40.314Z,69.98
2023-04-09T06:32:07.107Z,69.98
2023-04-09T06:35:33.792Z,70.26
2023-04-09T06:39:01.225Z,70.10
2023-04-09T06:42:28.436Z,70.14
2023-04-09T06:45:58.648Z,70.31
2023-04-09T06:49:24.999Z,70.07
2023-04-09T06:52:52.243Z,70.40
2023-04-09T06:56:18.936Z,70.25
2023-04-09T06:59:45.892Z,70.60
2023-04-09T07:03:13.660Z,70.56
2023-04-09T07:06:40.693Z,70.37
2023-04-09T07:10:08.977Z,70.47
2023-04-09T07:13:36.989Z,70.67
2023-04-09T07:17:03.901Z,70.55
2023-04-09T07:23:57.792Z,70.29
2023-04-09T07:27:25.894Z,70.55
2023-04-09T07:30:53.033Z,70.34
2023-04-09T07:34:19.998Z,70.72
2023-04-09T07:37:46.795Z,69.99
2023-04-09T07:41:15.538Z,70.52
2023-04-09T07:44:42.027Z,70.20
2023-04-09T07:48:10.162Z,70.64
2023-04-09T07:51:37.095Z,70.75
2023-04-09T07:55:04.397Z,70.57
2023-04-09T07:58:31.163Z,70.61
2023-04-09T08:01:57.802Z,70.56
2023-04-09T08:05:25.090Z,70.54
2023-04-09T08:08:51.710Z,70.80
2023-04-09T08:12:19.086Z,70.78
2023-04-09T08:15:45.643Z,70.87
2023-04-09T08:19:13.135Z,70.28
2023-04-09T08:22:41.318Z,70.58
2023-04-09T08:26:08.743Z,70.29
2023-04-09T08:29:35.840Z,70.83
2023-04-09T08:33:02.666Z,70.75
2023-04-09T08:36:29.950Z,70.78
2023-04-09T08:39:56.648Z,70.53
2023-04-09T08:43:37.382Z,70.72
2023-04-09T08:47:14.952Z,70.41
2023-04-09T08:50:41.876Z,70.50
2023-04-09T08:54:08.814Z,70.65
2023-04-09T08:57:40.705Z,70.63
2023-04-09T09:01:19.818Z,70.61
2023-04-09T09:04:51.144Z,70.57
2023-04-09T09:08:26.997Z,70.42
2023-04-09T09:11:55.092Z,70.31
2023-04-09T09:15:32.272Z,70.48
2023-04-09T09:18:59.268Z,70.57
2023-04-09T09:22:27.113Z,70.78
2023-04-09T09:25:53.577Z,70.56
2023-04-09T09:29:21.565Z,70.49
2023-04-09T09:32:47.965Z,70.38
2023-04-09T09:36:14.998Z,70.66
2023-04-09T09:39:47.149Z,70.68
2023-04-09T09:43:14.724Z,70.29
2023-04-09T09:46:42.715Z,70.32
2023-04-09T09:50:11.103Z,70.30
2023-04-09T09:53:39.462Z,70.47
2023-04-09T09:57:09.964Z,70.35
2023-04-09T10:00:39.208Z,70.29
2023-04-09T10:04:07.510Z,70.02
2023-04-09T10:07:35.113Z,70.36
2023-04-09T10:11:02.950Z,70.48
2023-04-09T10:14:31.275Z,70.26
2023-04-09T10:17:59.128Z,69.83
2023-04-09T10:21:36.724Z,69.68
2023-04-09T10:25:04.801Z,69.78
2023-04-09T10:28:32.471Z,69.88
2023-04-09T10:32:08.157Z,69.81
2023-04-09T10:35:34.819Z,69.54
2023-04-09T10:39:01.790Z,69.27
2023-04-09T10:42:34.688Z,69.23
2023-04-09T10:46:01.154Z,68.99
2023-04-09T10:49:28.839Z,68.80
2023-04-09T10:52:58.398Z,69.05
2023-04-09T10:56:25.523Z,68.67
2023-04-09T10:59:54.352Z,68.48
2023-04-09T11:03:29.828Z,68.48
2023-04-09T11:06:58.096Z,68.06
2023-04-09T11:10:24.605Z,68.04
2023-04-09T11:13:50.913Z,67.94
2023-04-09T11:17:18.636Z,68.04
2023-04-09T11:20:46.303Z,68.11
2023-04-09T11:24:15.211Z,68.15
2023-04-09T11:27:47.113Z,67.82
2023-04-09T11:31:13.879Z,67.44
2023-04-09T11:34:41.349Z,67.34
2023-04-09T11:38:11.727Z,67.42
2023-04-09T11:41:40.643Z,67.31
2023-04-09T11:45:09.821Z,67.22
2023-04-09T11:48:36.919Z,67.35
2023-04-09T11:52:05.217Z,67.23
2023-04-09T11:55:32.578Z,67.08
2023-04-09T11:59:01.356Z,66.67
2023-04-09T12:02:28.221Z,66.57
2023-04-09T12:05:55.179Z,66.39
2023-04-09T12:09:23.288Z,66.27
2023-04-09T12:12:50.889Z,66.12
2023-04-09T12:16:21.883Z,65.93
2023-04-09T12:19:51.956Z,65.73
2023-04-09T12:23:20.641Z,65.62
2023-04-09T12:26:48.917Z,65.64
2023-04-09T12:30:15.983Z,65.67
2023-04-09T12:33:43.305Z,65.30
2023-04-09T12:37:09.862Z,65.02
2023-04-09T12:40:37.061Z,64.88
2023-04-09T12:44:05.258Z,64.67
2023-04-09T12:47:31.935Z,64.26
2023-04-09T12:50:58.971Z,64.12
2023-04-09T12:54:25.182Z,63.93
2023-04-09T12:57:53.408Z,63.79
2023-04-09T13:01:20.087Z,63.85
2023-04-09T13:04:47.361Z,63.29
2023-04-09T13:08:14.266Z,63.09
2023-04-09T13:11:41.101Z,62.99
2023-04-09T13:15:09.247Z,62.64
2023-04-09T13:18:36.467Z,62.39
2023-04-09T13:22:03.320Z,62.21
2023-04-09T13:25:30.052Z,61.76
2023-04-09T13:28:56.901Z,61.36
2023-04-09T13:32:24.746Z,61.15
2023-04-09T13:35:52.437Z,61.03
2023-04-09T13:39:18.976Z,60.69
2023-04-09T13:42:45.949Z,60.45
2023-04-09T13:46:12.642Z,59.95
2023-04-09T13:49:39.898Z,59.95
2023-04-09T13:53:06.886Z,59.64
2023-04-09T13:56:33.848Z,59.31
2023-04-09T14:00:02.265Z,59.03
2023-04-09T14:03:31.877Z,58.79
2023-04-09T14:07:00.919Z,58.61
2023-04-09T14:10:27.820Z,58.36
2023-04-09T14:13:54.385Z,58.31
2023-04-09T14:17:21.412Z,58.04
2023-04-09T14:20:48.001Z,57.89
2023-04-09T14:24:14.697Z,57.60
2023-04-09T14:27:41.942Z,57.25
2023-04-09T14:31:08.900Z,57.17
2023-04-09T14:34:35.301Z,57.02
2023-04-09T14:38:04.667Z,56.71
2023-04-09T14:41:34.483Z,56.58
2023-04-09T14:45:00.923Z,56.37
2023-04-09T14:48:27.430Z,56.25
2023-04-09T14:51:54.792Z,56.34
2023-04-09T14:55:21.380Z,56.35
2023-04-09T14:58:48.421Z,56.21
2023-04-09T15:02:15.051Z,56.08
2023-04-09T15:05:41.610Z,55.96
2023-04-09T15:09:08.335Z,55.92
2023-04-09T15:12:35.880Z,55.78
2023-04-09T15:16:02.428Z,55.80
2023-04-09T15:19:32.485Z,55.73
2023-04-09T15:22:59.403Z,56.01
2023-04-09T15:26:27.492Z,56.05
2023-04-09T15:29:54.462Z,55.98
2023-04-09T15:33:21.285Z,56.17
2023-04-09T15:36:50.748Z,56.15
2023-04-09T15:40:17.880Z,56.11
2023-04-09T15:43:44.578Z,56.18
2023-04-09T15:47:11.244Z,56.30
2023-04-09T15:50:40.194Z,56.38
2023-04-09T15:54:06.898Z,56.56
2023-04-09T15:57:33.407Z,56.53
2023-04-09T16:01:00.220Z,56.67
2023-04-09T16:04:27.864Z,56.81
2023-04-09T16:07:55.943Z,56.86
2023-04-09T16:11:23.764Z,56.89
2023-04-09T16:14:50.829Z,57.00
2023-04-09T16:18:17.404Z,57.05
2023-04-09T16:21:45.766Z,57.06
2023-04-09T16:25:13.571Z,57.21
2023-04-09T16:28:42.966Z,57.27
2023-04-09T16:32:10.535Z,57.34
2023-04-09T16:35:39.409Z,57.34
2023-04-09T16:39:07.064Z,57.43
2023-04-09T16:42:34.981Z,57.54
2023-04-09T16:46:02.906Z,57.57
2023-04-09T16:49:30.013Z,57.46
2023-04-09T16:52:56.822Z,57.60
2023-04-09T16:56:23.488Z,57.49
2023-04-09T16:59:50.061Z,57.70
2023-04-09T17:03:17.290Z,57.53
2023-04-09T17:06:44.305Z,57.77
2023-04-09T17:10:12.918Z,57.95
2023-04-09T17:13:39.777Z,57.83
2023-04-09T17:17:07.610Z,58.08
2023-04-09T17:20:35.164Z,58.09
2023-04-09T17:24:06.027Z,58.16
2023-04-09T17:27:33.571Z,58.45
2023-04-09T17:31:04.976Z,58.69
2023-04-09T17:34:32.763Z,58.73
2023-04-09T17:37:59.497Z,59.06
2023-04-09T17:41:28.042Z,59.03
2023-04-09T17:44:54.875Z,59.00
2023-04-09T17:48:22.238Z,59.06
2023-04-09T17:51:49.501Z,59.28
2023-04-09T17:55:17.960Z,59.39
2023-04-09T17:58:44.902Z,59.47
2023-04-09T18:02:12.302Z,59.64
2023-04-09T18:05:39.607Z,59.59
2023-04-09T18:09:09.536Z,59.72
2023-04-09T18:12:36.339Z,59.75
2023-04-09T18:16:03.163Z,59.82
2023-04-09T18:19:29.630Z,59.79
2023-04-09T18:22:57.266Z,60.03
2023-04-09T18:26:24.469Z,59.86
2023-04-09T18:29:51.822Z,60.16
2023-04-09T18:33:18.502Z,60.33
2023-04-09T18:36:45.515Z,60.42
2023-04-09T18:40:22.103Z,60.54
2023-04-09T18:43:49.828Z,60.76
2023-04-09T18:47:16.871Z,60.83
2023-04-09T18:50:43.585Z,60.98
2023-04-09T18:54:10.569Z,60.98
2023-04-09T18:57:38.301Z,61.08
2023-04-09T19:01:13.111Z,61.17
2023-04-09T19:04:42.263Z,61.23
2023-04-09T19:08:11.152Z,61.34
2023-04-09T19:11:38.094Z,61.36
2023-04-09T19:15:06.652Z,61.58
2023-04-09T19:18:35.456Z,61.78
2023-04-09T19:22:02.391Z,61.98
2023-04-09T19:25:34.379Z,62.18
2023-04-09T19:29:01.488Z,62.15
2023-04-09T19:32:29.029Z,62.52
2023-04-09T19:35:57.292Z,62.70
2023-04-09T19:39:25.614Z,62.71
2023-04-09T19:42:54.485Z,62.88
2023-04-09T19:46:21.298Z,63.03
2023-04-09T19:49:51.491Z,63.09
2023-04-09T19:53:18.834Z,63.08
2023-04-09T19:56:45.801Z,63.08
2023-04-09T20:00:16.181Z,63.32
2023-04-09T20:03:44.216Z,63.30
2023-04-09T20:07:11.080Z,63.46
2023-04-09T20:10:43.190Z,63.37
2023-04-09T20:14:11.450Z,63.30
2023-04-09T20:17:38.696Z,63.37
2023-04-09T20:21:06.874Z,63.32
2023-04-09T20:24:34.146Z,63.21
2023-04-09T20:28:01.567Z,63.18
2023-04-09T20:31:28.896Z,62.93
2023-04-09T20:34:56.096Z,63.32
2023-04-09T20:38:22.871Z,62.89
2023-04-09T20:41:49.903Z,63.14
2023-04-09T20:45:17.191Z,62.76
2023-04-09T20:48:45.212Z,62.92
2023-04-09T20:52:12.297Z,62.65
2023-04-09T20:55:42.026Z,62.35
2023-04-09T20:59:08.962Z,62.77
2023-04-09T21:02:37.272Z,62.70
2023-04-09T21:06:04.313Z,62.67
2023-04-09T21:09:31.935Z,62.75
2023-04-09T21:12:58.675Z,62.54
2023-04-09T21:16:27.414Z,62.57
2023-04-09T21:19:56.943Z,62.19
2023-04-09T21:23:23.774Z,62.27
2023-04-09T21:26:52.309Z,62.36
2023-04-09T21:30:19.952Z,62.21
2023-04-09T21:33:47.097Z,62.48
2023-04-09T21:37:13.493Z,62.40
2023-04-09T21:40:41.058Z,62.36
2023-04-09T21:44:09.401Z,62.14
2023-04-09T21:47:36.162Z,62.15
2023-04-09T21:51:03.603Z,61.97
2023-04-09T21:54:30.323Z,62.21
2023-04-09T21:57:57.869Z,62.03
2023-04-09T22:01:29.437Z,62.32
2023-04-09T22:04:56.957Z,62.07
2023-04-09T22:08:24.881Z,62.12
2023-04-09T22:11:51.877Z,62.23
2023-04-09T22:15:18.682Z,62.09
2023-04-09T22:18:45.121Z,62.31
2023-04-09T22:22:14.274Z,62.55
2023-04-09T22:25:40.510Z,62.34
2023-04-09T22:29:07.804Z,62.71
2023-04-09T22:32:35.030Z,62.92
2023-04-09T22:36:01.983Z,62.76
2023-04-09T22:39:29.486Z,63.01
2023-04-09T22:42:55.829Z,62.89
2023-04-09T22:46:22.745Z,62.83
2023-04-09T22:49:53.478Z,63.15
2023-04-09T22:53:20.214Z,63.03
2023-04-09T22:56:46.985Z,62.72
2023-04-09T23:00:14.717Z,62.94
2023-04-09T23:03:41.965Z,62.72
2023-04-09T23:07:10.621Z,62.81
2023-04-09T23:10:38.323Z,62.45
2023-04-09T23:14:04.912Z,62.64
2023-04-09T23:17:31.697Z,62.69
2023-04-09T23:20:58.725Z,62.53
2023-04-09T23:24:25.882Z,62.53
2023-04-09T23:27:52.454Z,62.84
2023-04-09T23:31:18.893Z,62.73
2023-04-09T23:34:45.604Z,62.96
2023-04-09T23:38:12.450Z,62.98
2023-04-09T23:41:38.882Z,62.76
2023-04-09T23:45:07.061Z,62.99
2023-04-09T23:48:33.597Z,62.71
2023-04-09T23:52:00.250Z,62.86
2023-04-09T23:55:28.124Z,62.98
2023-04-09T23:58:54.974Z,62.93
